sensor_id;sensor_type;location;lat;lon;timestamp;temperature;humidity
46139;DHT22;32398;49.112;8.598;2023-01-01T00:02:15;14.00;93.40
46139;DHT22;32398;49.112;8.598;2023-01-01T00:04:42;14.00;93.40
46139;DHT22;32398;49.112;8.598;2023-01-01T00:07:08;14.00;93.40
46139;DHT22;32398;49.112;8.598;2023-01-01T00:09:35;14.00;93.40
46139;DHT22;32398;49.112;8.598;2023-01-01T00:12:19;14.00;93.40
46139;DHT22;32398;49.112;8.598;2023-01-01T00:14:45;14.00;93.30
46139;DHT22;32398;49.112;8.598;2023-01-01T00:17:13;14.00;93.10
46139;DHT22;32398;49.112;8.598;2023-01-01T00:19:40;14.00;93.20
46139;DHT22;32398;49.112;8.598;2023-01-01T00:22:06;14.10;93.10
46139;DHT22;32398;49.112;8.598;2023-01-01T00:24:33;14.00;93.10
46139;DHT22;32398;49.112;8.598;2023-01-01T00:26:59;14.00;93.20
46139;DHT22;32398;49.112;8.598;2023-01-01T00:29:26;14.00;93.00
46139;DHT22;32398;49.112;8.598;2023-01-01T00:31:52;14.00;93.00
46139;DHT22;32398;49.112;8.598;2023-01-01T00:34:20;14.10;93.00
46139;DHT22;32398;49.112;8.598;2023-01-01T00:36:47;14.00;93.40
46139;DHT22;32398;49.112;8.598;2023-01-01T00:39:13;14.00;93.10
46139;DHT22;32398;49.112;8.598;2023-01-01T00:41:41;14.00;93.20
46139;DHT22;32398;49.112;8.598;2023-01-01T00:44:08;14.00;93.20
46139;DHT22;32398;49.112;8.598;2023-01-01T00:46:34;14.00;93.10
46139;DHT22;32398;49.112;8.598;2023-01-01T00:49:01;14.00;93.00
46139;DHT22;32398;49.112;8.598;2023-01-01T00:51:29;14.00;93.00
46139;DHT22;32398;49.112;8.598;2023-01-01T00:53:55;14.00;93.20
46139;DHT22;32398;49.112;8.598;2023-01-01T00:56:22;14.00;93.20
46139;DHT22;32398;49.112;8.598;2023-01-01T00:58:49;14.00;93.20
46139;DHT22;32398;49.112;8.598;2023-01-01T01:01:15;14.00;93.70
46139;DHT22;32398;49.112;8.598;2023-01-01T01:03:42;14.00;93.30
46139;DHT22;32398;49.112;8.598;2023-01-01T01:06:09;14.00;93.40
46139;DHT22;32398;49.112;8.598;2023-01-01T01:08:39;14.00;93.50
46139;DHT22;32398;49.112;8.598;2023-01-01T01:11:06;14.00;93.50
46139;DHT22;32398;49.112;8.598;2023-01-01T01:13:33;14.00;93.40
46139;DHT22;32398;49.112;8.598;2023-01-01T01:15:59;14.00;93.40
46139;DHT22;32398;49.112;8.598;2023-01-01T01:18:26;14.00;93.50
46139;DHT22;32398;49.112;8.598;2023-01-01T01:20:53;14.00;93.50
46139;DHT22;32398;49.112;8.598;2023-01-01T01:23:20;13.90;93.50
46139;DHT22;32398;49.112;8.598;2023-01-01T01:25:48;13.90;93.50
46139;DHT22;32398;49.112;8.598;2023-01-01T01:28:14;13.90;93.50
46139;DHT22;32398;49.112;8.598;2023-01-01T01:30:41;13.90;93.40
46139;DHT22;32398;49.112;8.598;2023-01-01T01:33:07;13.90;93.50
46139;DHT22;32398;49.112;8.598;2023-01-01T01:35:34;13.90;93.50
46139;DHT22;32398;49.112;8.598;2023-01-01T01:38:00;13.90;93.60
46139;DHT22;32398;49.112;8.598;2023-01-01T01:40:27;13.90;93.60
46139;DHT22;32398;49.112;8.598;2023-01-01T01:42:55;13.90;93.70
46139;DHT22;32398;49.112;8.598;2023-01-01T01:45:22;13.80;93.60
46139;DHT22;32398;49.112;8.598;2023-01-01T01:47:49;13.80;93.60
46139;DHT22;32398;49.112;8.598;2023-01-01T01:50:18;13.80;93.70
46139;DHT22;32398;49.112;8.598;2023-01-01T01:52:47;13.80;93.60
46139;DHT22;32398;49.112;8.598;2023-01-01T01:55:17;13.80;93.50
46139;DHT22;32398;49.112;8.598;2023-01-01T01:57:43;13.80;93.30
46139;DHT22;32398;49.112;8.598;2023-01-01T02:00:12;13.80;93.50
46139;DHT22;32398;49.112;8.598;2023-01-01T02:02:41;13.80;93.50
46139;DHT22;32398;49.112;8.598;2023-01-01T02:05:08;13.80;93.30
46139;DHT22;32398;49.112;8.598;2023-01-01T02:07:35;13.70;93.20
46139;DHT22;32398;49.112;8.598;2023-01-01T02:10:02;13.70;93.30
46139;DHT22;32398;49.112;8.598;2023-01-01T02:12:29;13.80;93.20
46139;DHT22;32398;49.112;8.598;2023-01-01T02:14:55;13.70;93.20
46139;DHT22;32398;49.112;8.598;2023-01-01T02:17:26;13.70;93.30
46139;DHT22;32398;49.112;8.598;2023-01-01T02:19:57;13.70;93.30
46139;DHT22;32398;49.112;8.598;2023-01-01T02:22:29;13.70;93.30
46139;DHT22;32398;49.112;8.598;2023-01-01T02:25:06;13.70;93.10
46139;DHT22;32398;49.112;8.598;2023-01-01T02:27:37;13.70;93.10
46139;DHT22;32398;49.112;8.598;2023-01-01T02:30:09;13.70;93.20
46139;DHT22;32398;49.112;8.598;2023-01-01T02:32:37;13.70;93.20
46139;DHT22;32398;49.112;8.598;2023-01-01T02:35:07;13.70;93.20
46139;DHT22;32398;49.112;8.598;2023-01-01T02:37:56;13.70;93.20
46139;DHT22;32398;49.112;8.598;2023-01-01T02:40:24;13.70;93.20
46139;DHT22;32398;49.112;8.598;2023-01-01T02:42:52;13.70;93.10
46139;DHT22;32398;49.112;8.598;2023-01-01T02:45:20;13.70;93.10
46139;DHT22;32398;49.112;8.598;2023-01-01T02:47:47;13.60;93.20
46139;DHT22;32398;49.112;8.598;2023-01-01T02:50:14;13.70;93.20
46139;DHT22;32398;49.112;8.598;2023-01-01T02:52:47;13.70;93.20
46139;DHT22;32398;49.112;8.598;2023-01-01T02:55:16;13.70;93.20
46139;DHT22;32398;49.112;8.598;2023-01-01T02:57:48;13.60;93.10
46139;DHT22;32398;49.112;8.598;2023-01-01T03:00:17;13.60;93.10
46139;DHT22;32398;49.112;8.598;2023-01-01T03:02:57;13.70;93.10
46139;DHT22;32398;49.112;8.598;2023-01-01T03:05:29;13.60;93.20
46139;DHT22;32398;49.112;8.598;2023-01-01T03:08:01;13.60;93.20
46139;DHT22;32398;49.112;8.598;2023-01-01T03:10:31;13.60;93.20
46139;DHT22;32398;49.112;8.598;2023-01-01T03:12:59;13.60;93.20
46139;DHT22;32398;49.112;8.598;2023-01-01T03:15:27;13.60;93.20
46139;DHT22;32398;49.112;8.598;2023-01-01T03:17:58;13.60;93.20
46139;DHT22;32398;49.112;8.598;2023-01-01T03:20:27;13.60;93.20
46139;DHT22;32398;49.112;8.598;2023-01-01T03:22:56;13.60;93.10
46139;DHT22;32398;49.112;8.598;2023-01-01T03:25:25;13.60;93.10
46139;DHT22;32398;49.112;8.598;2023-01-01T03:27:53;13.60;93.20
46139;DHT22;32398;49.112;8.598;2023-01-01T03:30:22;13.60;93.20
46139;DHT22;32398;49.112;8.598;2023-01-01T03:32:50;13.60;93.30
46139;DHT22;32398;49.112;8.598;2023-01-01T03:35:31;13.60;93.40
46139;DHT22;32398;49.112;8.598;2023-01-01T03:37:59;13.50;93.40
46139;DHT22;32398;49.112;8.598;2023-01-01T03:40:26;13.50;93.40
46139;DHT22;32398;49.112;8.598;2023-01-01T03:42:55;13.60;93.50
46139;DHT22;32398;49.112;8.598;2023-01-01T03:45:23;13.50;93.40
46139;DHT22;32398;49.112;8.598;2023-01-01T03:47:50;13.50;93.30
46139;DHT22;32398;49.112;8.598;2023-01-01T03:50:17;13.50;93.30
46139;DHT22;32398;49.112;8.598;2023-01-01T03:52:49;13.50;93.30
46139;DHT22;32398;49.112;8.598;2023-01-01T03:55:17;13.50;93.30
46139;DHT22;32398;49.112;8.598;2023-01-01T03:57:48;13.50;93.20
46139;DHT22;32398;49.112;8.598;2023-01-01T04:00:18;13.50;93.20
46139;DHT22;32398;49.112;8.598;2023-01-01T04:02:47;13.50;93.20
46139;DHT22;32398;49.112;8.598;2023-01-01T04:05:14;13.50;93.10
46139;DHT22;32398;49.112;8.598;2023-01-01T04:07:42;13.40;93.10
46139;DHT22;32398;49.112;8.598;2023-01-01T04:10:10;13.40;93.00
46139;DHT22;32398;49.112;8.598;2023-01-01T04:12:44;13.40;92.80
46139;DHT22;32398;49.112;8.598;2023-01-01T04:15:11;13.50;92.90
46139;DHT22;32398;49.112;8.598;2023-01-01T04:17:37;13.40;92.90
46139;DHT22;32398;49.112;8.598;2023-01-01T04:20:04;13.40;92.40
46139;DHT22;32398;49.112;8.598;2023-01-01T04:22:32;13.40;92.30
46139;DHT22;32398;49.112;8.598;2023-01-01T04:24:58;13.40;92.50
46139;DHT22;32398;49.112;8.598;2023-01-01T04:27:26;13.40;92.60
46139;DHT22;32398;49.112;8.598;2023-01-01T04:29:53;13.40;92.60
46139;DHT22;32398;49.112;8.598;2023-01-01T04:32:19;13.40;92.50
46139;DHT22;32398;49.112;8.598;2023-01-01T04:34:46;13.40;92.50
46139;DHT22;32398;49.112;8.598;2023-01-01T04:37:12;13.40;92.60
46139;DHT22;32398;49.112;8.598;2023-01-01T04:39:39;13.40;92.40
46139;DHT22;32398;49.112;8.598;2023-01-01T04:42:06;13.40;92.40
46139;DHT22;32398;49.112;8.598;2023-01-01T04:44:33;13.30;92.40
46139;DHT22;32398;49.112;8.598;2023-01-01T04:47:00;13.40;92.40
46139;DHT22;32398;49.112;8.598;2023-01-01T04:49:27;13.40;92.30
46139;DHT22;32398;49.112;8.598;2023-01-01T04:51:53;13.30;92.30
46139;DHT22;32398;49.112;8.598;2023-01-01T04:54:20;13.30;92.40
46139;DHT22;32398;49.112;8.598;2023-01-01T04:56:46;13.40;92.40
46139;DHT22;32398;49.112;8.598;2023-01-01T04:59:13;13.30;92.30
46139;DHT22;32398;49.112;8.598;2023-01-01T05:01:40;13.30;92.30
46139;DHT22;32398;49.112;8.598;2023-01-01T05:04:08;13.30;92.20
46139;DHT22;32398;49.112;8.598;2023-01-01T05:06:36;13.30;92.20
46139;DHT22;32398;49.112;8.598;2023-01-01T05:09:02;13.30;92.10
46139;DHT22;32398;49.112;8.598;2023-01-01T05:11:30;13.30;92.00
46139;DHT22;32398;49.112;8.598;2023-01-01T05:13:57;13.30;92.10
46139;DHT22;32398;49.112;8.598;2023-01-01T05:16:25;13.30;92.20
46139;DHT22;32398;49.112;8.598;2023-01-01T05:18:53;13.30;92.00
46139;DHT22;32398;49.112;8.598;2023-01-01T05:21:20;13.30;92.10
46139;DHT22;32398;49.112;8.598;2023-01-01T05:23:47;13.30;92.20
46139;DHT22;32398;49.112;8.598;2023-01-01T05:26:15;13.30;92.20
46139;DHT22;32398;49.112;8.598;2023-01-01T05:28:42;13.20;92.10
46139;DHT22;32398;49.112;8.598;2023-01-01T05:31:10;13.30;92.10
46139;DHT22;32398;49.112;8.598;2023-01-01T05:33:37;13.30;92.30
46139;DHT22;32398;49.112;8.598;2023-01-01T05:36:06;13.30;92.30
46139;DHT22;32398;49.112;8.598;2023-01-01T05:38:33;13.30;92.20
46139;DHT22;32398;49.112;8.598;2023-01-01T05:41:04;13.30;92.20
46139;DHT22;32398;49.112;8.598;2023-01-01T05:43:30;13.30;92.20
46139;DHT22;32398;49.112;8.598;2023-01-01T05:46:00;13.30;92.10
46139;DHT22;32398;49.112;8.598;2023-01-01T05:48:27;13.30;92.10
46139;DHT22;32398;49.112;8.598;2023-01-01T05:50:59;13.30;92.10
46139;DHT22;32398;49.112;8.598;2023-01-01T05:53:28;13.30;92.00
46139;DHT22;32398;49.112;8.598;2023-01-01T05:55:55;13.30;92.00
46139;DHT22;32398;49.112;8.598;2023-01-01T05:58:22;13.30;91.90
46139;DHT22;32398;49.112;8.598;2023-01-01T06:00:48;13.30;91.80
46139;DHT22;32398;49.112;8.598;2023-01-01T06:03:15;13.30;91.80
46139;DHT22;32398;49.112;8.598;2023-01-01T06:05:41;13.30;91.80
46139;DHT22;32398;49.112;8.598;2023-01-01T06:08:08;13.30;91.70
46139;DHT22;32398;49.112;8.598;2023-01-01T06:10:36;13.20;91.60
46139;DHT22;32398;49.112;8.598;2023-01-01T06:13:02;13.30;91.60
46139;DHT22;32398;49.112;8.598;2023-01-01T06:15:29;13.20;91.50
46139;DHT22;32398;49.112;8.598;2023-01-01T06:17:56;13.30;91.60
46139;DHT22;32398;49.112;8.598;2023-01-01T06:20:22;13.20;91.60
46139;DHT22;32398;49.112;8.598;2023-01-01T06:22:49;13.20;91.80
46139;DHT22;32398;49.112;8.598;2023-01-01T06:25:16;13.20;91.90
46139;DHT22;32398;49.112;8.598;2023-01-01T06:27:43;13.20;92.00
46139;DHT22;32398;49.112;8.598;2023-01-01T06:30:10;13.20;91.90
46139;DHT22;32398;49.112;8.598;2023-01-01T06:32:37;13.20;92.10
46139;DHT22;32398;49.112;8.598;2023-01-01T06:35:03;13.20;92.10
46139;DHT22;32398;49.112;8.598;2023-01-01T06:37:30;13.30;92.10
46139;DHT22;32398;49.112;8.598;2023-01-01T06:39:56;13.20;92.20
46139;DHT22;32398;49.112;8.598;2023-01-01T06:42:23;13.20;92.10
46139;DHT22;32398;49.112;8.598;2023-01-01T06:44:51;13.20;92.10
46139;DHT22;32398;49.112;8.598;2023-01-01T06:47:17;13.20;92.20
46139;DHT22;32398;49.112;8.598;2023-01-01T06:49:44;13.10;92.20
46139;DHT22;32398;49.112;8.598;2023-01-01T06:52:10;13.10;92.20
46139;DHT22;32398;49.112;8.598;2023-01-01T06:54:37;13.20;92.30
46139;DHT22;32398;49.112;8.598;2023-01-01T06:57:03;13.10;92.40
46139;DHT22;32398;49.112;8.598;2023-01-01T06:59:30;13.10;92.40
46139;DHT22;32398;49.112;8.598;2023-01-01T07:01:58;13.10;92.50
46139;DHT22;32398;49.112;8.598;2023-01-01T07:04:24;13.10;92.50
46139;DHT22;32398;49.112;8.598;2023-01-01T07:06:51;13.10;92.50
46139;DHT22;32398;49.112;8.598;2023-01-01T07:09:17;13.00;92.60
46139;DHT22;32398;49.112;8.598;2023-01-01T07:11:44;13.00;92.60
46139;DHT22;32398;49.112;8.598;2023-01-01T07:14:10;13.00;92.60
46139;DHT22;32398;49.112;8.598;2023-01-01T07:16:37;13.00;92.60
46139;DHT22;32398;49.112;8.598;2023-01-01T07:19:05;12.90;92.60
46139;DHT22;32398;49.112;8.598;2023-01-01T07:21:32;13.00;92.60
46139;DHT22;32398;49.112;8.598;2023-01-01T07:23:59;12.90;92.70
46139;DHT22;32398;49.112;8.598;2023-01-01T07:26:26;12.90;92.70
46139;DHT22;32398;49.112;8.598;2023-01-01T07:28:53;12.90;92.70
46139;DHT22;32398;49.112;8.598;2023-01-01T07:31:20;12.90;92.70
46139;DHT22;32398;49.112;8.598;2023-01-01T07:33:46;12.90;92.80
46139;DHT22;32398;49.112;8.598;2023-01-01T07:36:14;12.90;92.90
46139;DHT22;32398;49.112;8.598;2023-01-01T07:38:41;12.90;92.90
46139;DHT22;32398;49.112;8.598;2023-01-01T07:41:07;12.90;92.90
46139;DHT22;32398;49.112;8.598;2023-01-01T07:43:34;12.80;92.90
46139;DHT22;32398;49.112;8.598;2023-01-01T07:46:00;12.80;92.90
46139;DHT22;32398;49.112;8.598;2023-01-01T07:48:27;12.80;93.00
46139;DHT22;32398;49.112;8.598;2023-01-01T07:50:53;12.80;93.00
46139;DHT22;32398;49.112;8.598;2023-01-01T07:53:21;12.80;93.10
46139;DHT22;32398;49.112;8.598;2023-01-01T07:55:48;12.70;93.10
46139;DHT22;32398;49.112;8.598;2023-01-01T07:58:15;12.80;93.20
46139;DHT22;32398;49.112;8.598;2023-01-01T08:00:44;12.70;93.20
46139;DHT22;32398;49.112;8.598;2023-01-01T08:03:10;12.70;93.30
46139;DHT22;32398;49.112;8.598;2023-01-01T08:05:37;12.60;93.40
46139;DHT22;32398;49.112;8.598;2023-01-01T08:08:03;12.60;93.50
46139;DHT22;32398;49.112;8.598;2023-01-01T08:10:31;12.60;93.60
46139;DHT22;32398;49.112;8.598;2023-01-01T08:12:58;12.60;93.70
46139;DHT22;32398;49.112;8.598;2023-01-01T08:15:25;12.60;93.80
46139;DHT22;32398;49.112;8.598;2023-01-01T08:17:54;12.50;93.80
46139;DHT22;32398;49.112;8.598;2023-01-01T08:20:21;12.60;94.00
46139;DHT22;32398;49.112;8.598;2023-01-01T08:22:47;12.50;94.00
46139;DHT22;32398;49.112;8.598;2023-01-01T08:25:14;12.50;94.10
46139;DHT22;32398;49.112;8.598;2023-01-01T08:27:42;12.50;94.20
46139;DHT22;32398;49.112;8.598;2023-01-01T08:30:09;12.50;94.30
46139;DHT22;32398;49.112;8.598;2023-01-01T08:32:36;12.50;94.40
46139;DHT22;32398;49.112;8.598;2023-01-01T08:35:02;12.50;94.50
46139;DHT22;32398;49.112;8.598;2023-01-01T08:37:29;12.40;94.60
46139;DHT22;32398;49.112;8.598;2023-01-01T08:39:56;12.40;94.60
46139;DHT22;32398;49.112;8.598;2023-01-01T08:42:22;12.40;94.70
46139;DHT22;32398;49.112;8.598;2023-01-01T08:44:50;12.40;94.80
46139;DHT22;32398;49.112;8.598;2023-01-01T08:47:17;12.40;94.90
46139;DHT22;32398;49.112;8.598;2023-01-01T08:49:43;12.30;94.90
46139;DHT22;32398;49.112;8.598;2023-01-01T08:52:10;12.30;95.00
46139;DHT22;32398;49.112;8.598;2023-01-01T08:54:37;12.30;94.90
46139;DHT22;32398;49.112;8.598;2023-01-01T08:57:03;12.30;94.90
46139;DHT22;32398;49.112;8.598;2023-01-01T08:59:30;12.30;95.00
46139;DHT22;32398;49.112;8.598;2023-01-01T09:01:58;12.30;95.00
46139;DHT22;32398;49.112;8.598;2023-01-01T09:04:25;12.30;95.00
46139;DHT22;32398;49.112;8.598;2023-01-01T09:06:51;12.30;95.00
46139;DHT22;32398;49.112;8.598;2023-01-01T09:09:18;12.30;95.00
46139;DHT22;32398;49.112;8.598;2023-01-01T09:11:49;12.30;95.10
46139;DHT22;32398;49.112;8.598;2023-01-01T09:14:15;12.30;95.10
46139;DHT22;32398;49.112;8.598;2023-01-01T09:16:42;12.20;95.20
46139;DHT22;32398;49.112;8.598;2023-01-01T09:19:10;12.30;95.20
46139;DHT22;32398;49.112;8.598;2023-01-01T09:21:36;12.30;95.20
46139;DHT22;32398;49.112;8.598;2023-01-01T09:24:03;12.20;95.20
46139;DHT22;32398;49.112;8.598;2023-01-01T09:26:30;12.20;95.20
46139;DHT22;32398;49.112;8.598;2023-01-01T09:28:56;12.20;95.20
46139;DHT22;32398;49.112;8.598;2023-01-01T09:31:23;12.20;95.20
46139;DHT22;32398;49.112;8.598;2023-01-01T09:33:49;12.20;95.30
46139;DHT22;32398;49.112;8.598;2023-01-01T09:36:25;12.20;95.30
46139;DHT22;32398;49.112;8.598;2023-01-01T09:38:53;12.10;95.30
46139;DHT22;32398;49.112;8.598;2023-01-01T09:41:21;12.20;95.40
46139;DHT22;32398;49.112;8.598;2023-01-01T09:43:53;12.20;95.40
46139;DHT22;32398;49.112;8.598;2023-01-01T09:46:24;12.30;95.50
46139;DHT22;32398;49.112;8.598;2023-01-01T09:48:52;12.20;95.50
46139;DHT22;32398;49.112;8.598;2023-01-01T09:51:20;12.20;95.50
46139;DHT22;32398;49.112;8.598;2023-01-01T09:53:49;12.20;95.50
46139;DHT22;32398;49.112;8.598;2023-01-01T09:56:19;12.20;95.80
46139;DHT22;32398;49.112;8.598;2023-01-01T09:58:47;12.20;95.50
46139;DHT22;32398;49.112;8.598;2023-01-01T10:01:15;12.20;95.50
46139;DHT22;32398;49.112;8.598;2023-01-01T10:03:45;12.20;95.30
46139;DHT22;32398;49.112;8.598;2023-01-01T10:06:15;12.20;95.30
46139;DHT22;32398;49.112;8.598;2023-01-01T10:11:34;12.20;95.20
46139;DHT22;32398;49.112;8.598;2023-01-01T10:14:03;12.20;95.10
46139;DHT22;32398;49.112;8.598;2023-01-01T10:16:32;12.30;95.10
46139;DHT22;32398;49.112;8.598;2023-01-01T10:19:01;12.30;95.10
46139;DHT22;32398;49.112;8.598;2023-01-01T10:21:33;12.30;95.10
46139;DHT22;32398;49.112;8.598;2023-01-01T10:24:02;12.20;95.10
46139;DHT22;32398;49.112;8.598;2023-01-01T10:26:31;12.30;95.10
46139;DHT22;32398;49.112;8.598;2023-01-01T10:29:01;12.30;95.10
46139;DHT22;32398;49.112;8.598;2023-01-01T10:31:30;12.30;95.10
46139;DHT22;32398;49.112;8.598;2023-01-01T10:33:57;12.30;95.10
46139;DHT22;32398;49.112;8.598;2023-01-01T10:36:24;12.30;95.10
46139;DHT22;32398;49.112;8.598;2023-01-01T10:38:51;12.30;95.20
46139;DHT22;32398;49.112;8.598;2023-01-01T10:41:17;12.30;95.20
46139;DHT22;32398;49.112;8.598;2023-01-01T10:43:45;12.40;95.20
46139;DHT22;32398;49.112;8.598;2023-01-01T10:46:13;12.40;95.10
46139;DHT22;32398;49.112;8.598;2023-01-01T10:48:41;12.40;95.10
46139;DHT22;32398;49.112;8.598;2023-01-01T10:51:27;12.40;95.10
46139;DHT22;32398;49.112;8.598;2023-01-01T10:53:54;12.40;95.00
46139;DHT22;32398;49.112;8.598;2023-01-01T10:56:21;12.40;95.00
46139;DHT22;32398;49.112;8.598;2023-01-01T10:58:50;12.40;95.00
46139;DHT22;32398;49.112;8.598;2023-01-01T11:01:19;12.40;94.90
46139;DHT22;32398;49.112;8.598;2023-01-01T11:03:56;12.50;94.90
46139;DHT22;32398;49.112;8.598;2023-01-01T11:06:23;12.50;94.80
46139;DHT22;32398;49.112;8.598;2023-01-01T11:08:51;12.50;94.60
46139;DHT22;32398;49.112;8.598;2023-01-01T11:11:21;12.60;94.60
46139;DHT22;32398;49.112;8.598;2023-01-01T11:13:52;12.50;94.60
46139;DHT22;32398;49.112;8.598;2023-01-01T11:16:19;12.60;94.70
46139;DHT22;32398;49.112;8.598;2023-01-01T11:18:46;12.60;94.40
46139;DHT22;32398;49.112;8.598;2023-01-01T11:21:18;12.60;94.50
46139;DHT22;32398;49.112;8.598;2023-01-01T11:23:45;12.60;94.60
46139;DHT22;32398;49.112;8.598;2023-01-01T11:26:18;12.70;94.50
46139;DHT22;32398;49.112;8.598;2023-01-01T11:28:57;12.70;94.60
46139;DHT22;32398;49.112;8.598;2023-01-01T11:31:26;12.70;94.60
46139;DHT22;32398;49.112;8.598;2023-01-01T11:33:54;12.70;94.50
46139;DHT22;32398;49.112;8.598;2023-01-01T11:36:22;12.60;94.30
46139;DHT22;32398;49.112;8.598;2023-01-01T11:38:49;12.70;94.40
46139;DHT22;32398;49.112;8.598;2023-01-01T11:41:16;12.80;94.20
46139;DHT22;32398;49.112;8.598;2023-01-01T11:43:43;12.80;94.00
46139;DHT22;32398;49.112;8.598;2023-01-01T11:46:13;12.80;94.10
46139;DHT22;32398;49.112;8.598;2023-01-01T11:48:43;12.80;94.10
46139;DHT22;32398;49.112;8.598;2023-01-01T11:51:11;12.80;94.20
46139;DHT22;32398;49.112;8.598;2023-01-01T11:53:52;12.80;94.20
46139;DHT22;32398;49.112;8.598;2023-01-01T11:56:32;12.90;94.10
46139;DHT22;32398;49.112;8.598;2023-01-01T11:59:01;12.90;93.90
46139;DHT22;32398;49.112;8.598;2023-01-01T12:01:30;13.00;94.00
46139;DHT22;32398;49.112;8.598;2023-01-01T12:04:01;13.00;93.70
46139;DHT22;32398;49.112;8.598;2023-01-01T12:06:28;13.00;93.50
46139;DHT22;32398;49.112;8.598;2023-01-01T12:08:58;13.10;93.50
46139;DHT22;32398;49.112;8.598;2023-01-01T12:11:28;13.10;93.50
46139;DHT22;32398;49.112;8.598;2023-01-01T12:13:58;13.10;93.60
46139;DHT22;32398;49.112;8.598;2023-01-01T12:16:26;13.20;93.30
46139;DHT22;32398;49.112;8.598;2023-01-01T12:18:59;13.20;93.10
46139;DHT22;32398;49.112;8.598;2023-01-01T12:21:28;13.30;93.20
46139;DHT22;32398;49.112;8.598;2023-01-01T12:23:57;13.30;93.10
46139;DHT22;32398;49.112;8.598;2023-01-01T12:26:24;13.30;92.90
46139;DHT22;32398;49.112;8.598;2023-01-01T12:29:03;13.30;92.40
46139;DHT22;32398;49.112;8.598;2023-01-01T12:31:32;13.40;92.50
46139;DHT22;32398;49.112;8.598;2023-01-01T12:34:06;13.40;91.80
46139;DHT22;32398;49.112;8.598;2023-01-01T12:36:40;13.40;92.00
46139;DHT22;32398;49.112;8.598;2023-01-01T12:42:03;13.50;92.00
46139;DHT22;32398;49.112;8.598;2023-01-01T12:44:35;13.60;92.00
46139;DHT22;32398;49.112;8.598;2023-01-01T12:47:04;13.60;91.20
46139;DHT22;32398;49.112;8.598;2023-01-01T12:49:36;13.70;90.40
46139;DHT22;32398;49.112;8.598;2023-01-01T12:52:10;13.70;90.50
46139;DHT22;32398;49.112;8.598;2023-01-01T12:54:46;13.60;90.80
46139;DHT22;32398;49.112;8.598;2023-01-01T12:57:19;13.80;90.70
46139;DHT22;32398;49.112;8.598;2023-01-01T12:59:49;13.80;90.40
46139;DHT22;32398;49.112;8.598;2023-01-01T13:02:18;13.80;90.80
46139;DHT22;32398;49.112;8.598;2023-01-01T13:04:46;13.80;91.00
46139;DHT22;32398;49.112;8.598;2023-01-01T13:07:14;13.90;91.20
46139;DHT22;32398;49.112;8.598;2023-01-01T13:09:44;13.90;90.70
46139;DHT22;32398;49.112;8.598;2023-01-01T13:12:13;13.90;90.80
46139;DHT22;32398;49.112;8.598;2023-01-01T13:14:41;13.90;89.10
46139;DHT22;32398;49.112;8.598;2023-01-01T13:17:16;14.00;90.20
46139;DHT22;32398;49.112;8.598;2023-01-01T13:19:43;14.00;90.40
46139;DHT22;32398;49.112;8.598;2023-01-01T13:22:36;14.10;90.10
46139;DHT22;32398;49.112;8.598;2023-01-01T13:25:17;14.00;90.30
46139;DHT22;32398;49.112;8.598;2023-01-01T13:28:03;14.10;90.50
46139;DHT22;32398;49.112;8.598;2023-01-01T13:30:49;14.10;90.60
46139;DHT22;32398;49.112;8.598;2023-01-01T13:33:17;14.10;90.70
46139;DHT22;32398;49.112;8.598;2023-01-01T13:41:31;14.20;90.70
46139;DHT22;32398;49.112;8.598;2023-01-01T13:44:11;14.20;90.70
46139;DHT22;32398;49.112;8.598;2023-01-01T13:46:44;14.10;90.80
46139;DHT22;32398;49.112;8.598;2023-01-01T13:49:19;14.20;90.90
46139;DHT22;32398;49.112;8.598;2023-01-01T13:51:59;14.20;90.90
46139;DHT22;32398;49.112;8.598;2023-01-01T13:57:21;14.20;90.80
46139;DHT22;32398;49.112;8.598;2023-01-01T13:59:55;14.20;90.70
46139;DHT22;32398;49.112;8.598;2023-01-01T14:02:26;14.20;90.40
46139;DHT22;32398;49.112;8.598;2023-01-01T14:04:55;14.20;90.50
46139;DHT22;32398;49.112;8.598;2023-01-01T14:07:26;14.20;90.70
46139;DHT22;32398;49.112;8.598;2023-01-01T14:10:07;14.20;90.60
46139;DHT22;32398;49.112;8.598;2023-01-01T14:12:37;14.30;90.80
46139;DHT22;32398;49.112;8.598;2023-01-01T14:15:12;14.30;91.00
46139;DHT22;32398;49.112;8.598;2023-01-01T14:17:39;14.30;91.10
46139;DHT22;32398;49.112;8.598;2023-01-01T14:20:06;14.30;91.20
46139;DHT22;32398;49.112;8.598;2023-01-01T14:22:33;14.30;91.30
46139;DHT22;32398;49.112;8.598;2023-01-01T14:25:00;14.30;91.40
46139;DHT22;32398;49.112;8.598;2023-01-01T14:27:26;14.30;91.50
46139;DHT22;32398;49.112;8.598;2023-01-01T14:29:55;14.30;91.50
46139;DHT22;32398;49.112;8.598;2023-01-01T14:32:23;14.20;91.50
46139;DHT22;32398;49.112;8.598;2023-01-01T14:34:57;14.30;91.60
46139;DHT22;32398;49.112;8.598;2023-01-01T14:37:24;14.30;91.70
46139;DHT22;32398;49.112;8.598;2023-01-01T14:40:07;14.30;91.80
46139;DHT22;32398;49.112;8.598;2023-01-01T14:42:35;14.30;91.80
46139;DHT22;32398;49.112;8.598;2023-01-01T14:45:03;14.20;91.70
46139;DHT22;32398;49.112;8.598;2023-01-01T14:47:32;14.30;91.70
46139;DHT22;32398;49.112;8.598;2023-01-01T14:50:01;14.30;91.80
46139;DHT22;32398;49.112;8.598;2023-01-01T14:52:28;14.30;91.80
46139;DHT22;32398;49.112;8.598;2023-01-01T14:54:55;14.30;91.80
46139;DHT22;32398;49.112;8.598;2023-01-01T14:57:24;14.30;91.90
46139;DHT22;32398;49.112;8.598;2023-01-01T14:59:52;14.30;92.00
46139;DHT22;32398;49.112;8.598;2023-01-01T15:02:21;14.20;92.00
46139;DHT22;32398;49.112;8.598;2023-01-01T15:04:48;14.30;92.20
46139;DHT22;32398;49.112;8.598;2023-01-01T15:07:18;14.20;92.10
46139;DHT22;32398;49.112;8.598;2023-01-01T15:09:45;14.30;92.10
46139;DHT22;32398;49.112;8.598;2023-01-01T15:12:12;14.20;92.10
46139;DHT22;32398;49.112;8.598;2023-01-01T15:14:42;14.20;92.00
46139;DHT22;32398;49.112;8.598;2023-01-01T15:17:10;14.20;92.10
46139;DHT22;32398;49.112;8.598;2023-01-01T15:19:40;14.20;92.10
46139;DHT22;32398;49.112;8.598;2023-01-01T15:22:07;14.20;92.10
46139;DHT22;32398;49.112;8.598;2023-01-01T15:24:35;14.20;92.10
46139;DHT22;32398;49.112;8.598;2023-01-01T15:27:02;14.20;92.00
46139;DHT22;32398;49.112;8.598;2023-01-01T15:29:29;14.20;92.20
46139;DHT22;32398;49.112;8.598;2023-01-01T15:31:57;14.10;92.10
46139;DHT22;32398;49.112;8.598;2023-01-01T15:34:25;14.20;92.30
46139;DHT22;32398;49.112;8.598;2023-01-01T15:36:56;14.10;92.30
46139;DHT22;32398;49.112;8.598;2023-01-01T15:39:30;14.10;92.30
46139;DHT22;32398;49.112;8.598;2023-01-01T15:41:57;14.10;92.30
46139;DHT22;32398;49.112;8.598;2023-01-01T15:44:25;14.10;92.30
46139;DHT22;32398;49.112;8.598;2023-01-01T15:46:52;14.10;92.40
46139;DHT22;32398;49.112;8.598;2023-01-01T15:49:22;14.10;92.50
46139;DHT22;32398;49.112;8.598;2023-01-01T15:51:49;14.10;92.40
46139;DHT22;32398;49.112;8.598;2023-01-01T15:54:17;14.00;92.50